sensor_id;sensor_type;location;lat;lon;timestamp;P1;durP1;ratioP1;P2;durP2;ratioP2
10945;SDS011;5525;42.648;23.368;2024-02-23T00:01:50;18.92;;;13.60;;
10945;SDS011;5525;42.648;23.368;2024-02-23T00:04:17;19.40;;;13.35;;
10945;SDS011;5525;42.648;23.368;2024-02-23T00:06:46;18.85;;;12.90;;
10945;SDS011;5525;42.648;23.368;2024-02-23T00:09:12;17.65;;;12.73;;
10945;SDS011;5525;42.648;23.368;2024-02-23T00:11:39;18.45;;;13.13;;
10945;SDS011;5525;42.648;23.368;2024-02-23T00:14:09;19.20;;;13.02;;
10945;SDS011;5525;42.648;23.368;2024-02-23T00:16:39;18.98;;;12.85;;
10945;SDS011;5525;42.648;23.368;2024-02-23T00:19:07;18.52;;;12.95;;
10945;SDS011;5525;42.648;23.368;2024-02-23T00:21:34;20.75;;;12.73;;
10945;SDS011;5525;42.648;23.368;2024-02-23T00:24:03;17.42;;;11.93;;
10945;SDS011;5525;42.648;23.368;2024-02-23T00:26:30;18.40;;;12.02;;
10945;SDS011;5525;42.648;23.368;2024-02-23T00:28:57;16.13;;;12.32;;
10945;SDS011;5525;42.648;23.368;2024-02-23T00:31:24;16.65;;;12.35;;
10945;SDS011;5525;42.648;23.368;2024-02-23T00:33:50;16.92;;;12.80;;
10945;SDS011;5525;42.648;23.368;2024-02-23T00:36:17;19.77;;;13.48;;
10945;SDS011;5525;42.648;23.368;2024-02-23T00:38:44;17.98;;;12.45;;
10945;SDS011;5525;42.648;23.368;2024-02-23T00:41:13;18.90;;;11.85;;
10945;SDS011;5525;42.648;23.368;2024-02-23T00:43:40;16.50;;;11.52;;
10945;SDS011;5525;42.648;23.368;2024-02-23T00:46:07;18.55;;;12.50;;
10945;SDS011;5525;42.648;23.368;2024-02-23T00:48:35;18.77;;;12.32;;
10945;SDS011;5525;42.648;23.368;2024-02-23T00:51:02;18.17;;;12.05;;
10945;SDS011;5525;42.648;23.368;2024-02-23T00:53:30;16.83;;;12.35;;
10945;SDS011;5525;42.648;23.368;2024-02-23T00:55:57;17.17;;;11.95;;
10945;SDS011;5525;42.648;23.368;2024-02-23T00:58:25;15.27;;;10.32;;
10945;SDS011;5525;42.648;23.368;2024-02-23T01:00:52;15.82;;;10.75;;
10945;SDS011;5525;42.648;23.368;2024-02-23T01:03:19;14.35;;;10.68;;
10945;SDS011;5525;42.648;23.368;2024-02-23T01:05:46;15.93;;;10.55;;
10945;SDS011;5525;42.648;23.368;2024-02-23T01:08:13;15.00;;;11.02;;
10945;SDS011;5525;42.648;23.368;2024-02-23T01:10:40;16.23;;;11.05;;
10945;SDS011;5525;42.648;23.368;2024-02-23T01:13:07;12.45;;;9.52;;
10945;SDS011;5525;42.648;23.368;2024-02-23T01:15:35;12.70;;;9.45;;
10945;SDS011;5525;42.648;23.368;2024-02-23T01:18:03;14.82;;;10.63;;
10945;SDS011;5525;42.648;23.368;2024-02-23T01:20:31;15.60;;;10.55;;
10945;SDS011;5525;42.648;23.368;2024-02-23T01:22:58;13.15;;;8.85;;
10945;SDS011;5525;42.648;23.368;2024-02-23T01:25:25;12.13;;;9.20;;
10945;SDS011;5525;42.648;23.368;2024-02-23T01:27:52;12.48;;;8.90;;
10945;SDS011;5525;42.648;23.368;2024-02-23T01:30:20;12.23;;;8.80;;
10945;SDS011;5525;42.648;23.368;2024-02-23T01:32:49;11.48;;;8.30;;
10945;SDS011;5525;42.648;23.368;2024-02-23T01:35:16;11.63;;;8.52;;
10945;SDS011;5525;42.648;23.368;2024-02-23T01:37:46;11.15;;;8.65;;
10945;SDS011;5525;42.648;23.368;2024-02-23T01:40:13;10.35;;;8.25;;
10945;SDS011;5525;42.648;23.368;2024-02-23T01:42:40;11.05;;;8.20;;
10945;SDS011;5525;42.648;23.368;2024-02-23T01:45:07;10.63;;;8.20;;
10945;SDS011;5525;42.648;23.368;2024-02-23T01:47:34;12.18;;;7.90;;
10945;SDS011;5525;42.648;23.368;2024-02-23T01:50:02;10.25;;;8.20;;
10945;SDS011;5525;42.648;23.368;2024-02-23T01:52:30;11.70;;;8.38;;
10945;SDS011;5525;42.648;23.368;2024-02-23T01:54:57;10.52;;;7.95;;
10945;SDS011;5525;42.648;23.368;2024-02-23T01:57:26;10.05;;;7.85;;
10945;SDS011;5525;42.648;23.368;2024-02-23T01:59:53;10.65;;;8.18;;
10945;SDS011;5525;42.648;23.368;2024-02-23T02:02:20;9.15;;;7.57;;
10945;SDS011;5525;42.648;23.368;2024-02-23T02:04:46;10.13;;;8.00;;
10945;SDS011;5525;42.648;23.368;2024-02-23T02:07:15;10.15;;;7.88;;
10945;SDS011;5525;42.648;23.368;2024-02-23T02:09:43;12.10;;;7.78;;
10945;SDS011;5525;42.648;23.368;2024-02-23T02:12:10;10.50;;;7.95;;
10945;SDS011;5525;42.648;23.368;2024-02-23T02:14:36;10.55;;;8.50;;
10945;SDS011;5525;42.648;23.368;2024-02-23T02:17:03;10.60;;;7.93;;
10945;SDS011;5525;42.648;23.368;2024-02-23T02:19:30;12.55;;;9.27;;
10945;SDS011;5525;42.648;23.368;2024-02-23T02:21:57;12.88;;;9.02;;
10945;SDS011;5525;42.648;23.368;2024-02-23T02:24:25;12.95;;;8.88;;
10945;SDS011;5525;42.648;23.368;2024-02-23T02:26:53;11.38;;;8.63;;
10945;SDS011;5525;42.648;23.368;2024-02-23T02:29:20;12.68;;;8.50;;
10945;SDS011;5525;42.648;23.368;2024-02-23T02:31:46;11.82;;;8.70;;
10945;SDS011;5525;42.648;23.368;2024-02-23T02:34:13;12.82;;;9.57;;
10945;SDS011;5525;42.648;23.368;2024-02-23T02:36:40;11.45;;;8.88;;
10945;SDS011;5525;42.648;23.368;2024-02-23T02:39:07;12.10;;;9.02;;
10945;SDS011;5525;42.648;23.368;2024-02-23T02:41:35;13.35;;;8.80;;
10945;SDS011;5525;42.648;23.368;2024-02-23T02:44:01;13.00;;;9.02;;
10945;SDS011;5525;42.648;23.368;2024-02-23T02:46:28;12.35;;;8.90;;
10945;SDS011;5525;42.648;23.368;2024-02-23T02:48:55;13.90;;;8.90;;
10945;SDS011;5525;42.648;23.368;2024-02-23T02:51:22;12.30;;;8.48;;
10945;SDS011;5525;42.648;23.368;2024-02-23T02:53:49;12.85;;;8.35;;
10945;SDS011;5525;42.648;23.368;2024-02-23T02:56:15;12.63;;;8.65;;
10945;SDS011;5525;42.648;23.368;2024-02-23T02:58:44;11.38;;;7.97;;
10945;SDS011;5525;42.648;23.368;2024-02-23T03:01:11;11.63;;;8.18;;
10945;SDS011;5525;42.648;23.368;2024-02-23T03:03:38;11.30;;;8.30;;
10945;SDS011;5525;42.648;23.368;2024-02-23T03:06:05;10.65;;;8.13;;
10945;SDS011;5525;42.648;23.368;2024-02-23T03:08:32;13.40;;;8.90;;
10945;SDS011;5525;42.648;23.368;2024-02-23T03:10:59;12.77;;;9.27;;
10945;SDS011;5525;42.648;23.368;2024-02-23T03:13:26;15.43;;;9.15;;
10945;SDS011;5525;42.648;23.368;2024-02-23T03:15:54;12.70;;;8.80;;
10945;SDS011;5525;42.648;23.368;2024-02-23T03:18:21;13.30;;;9.10;;
10945;SDS011;5525;42.648;23.368;2024-02-23T03:20:48;11.38;;;8.50;;
10945;SDS011;5525;42.648;23.368;2024-02-23T03:23:14;11.77;;;9.05;;
10945;SDS011;5525;42.648;23.368;2024-02-23T03:25:41;11.18;;;8.50;;
10945;SDS011;5525;42.648;23.368;2024-02-23T03:28:08;14.18;;;9.23;;
10945;SDS011;5525;42.648;23.368;2024-02-23T03:30:35;13.63;;;8.90;;
10945;SDS011;5525;42.648;23.368;2024-02-23T03:33:03;14.90;;;9.73;;
10945;SDS011;5525;42.648;23.368;2024-02-23T03:35:30;11.80;;;9.18;;
10945;SDS011;5525;42.648;23.368;2024-02-23T03:37:57;12.63;;;9.45;;
10945;SDS011;5525;42.648;23.368;2024-02-23T03:40:24;14.15;;;9.40;;
10945;SDS011;5525;42.648;23.368;2024-02-23T03:42:51;12.85;;;9.10;;
10945;SDS011;5525;42.648;23.368;2024-02-23T03:45:17;13.82;;;9.43;;
10945;SDS011;5525;42.648;23.368;2024-02-23T03:47:44;13.95;;;9.15;;
10945;SDS011;5525;42.648;23.368;2024-02-23T03:50:12;14.90;;;10.10;;
10945;SDS011;5525;42.648;23.368;2024-02-23T03:52:39;13.43;;;9.20;;
10945;SDS011;5525;42.648;23.368;2024-02-23T03:55:06;11.60;;;8.77;;
10945;SDS011;5525;42.648;23.368;2024-02-23T03:57:34;12.10;;;8.82;;
10945;SDS011;5525;42.648;23.368;2024-02-23T04:00:00;14.75;;;9.23;;
10945;SDS011;5525;42.648;23.368;2024-02-23T04:02:27;13.95;;;9.65;;
10945;SDS011;5525;42.648;23.368;2024-02-23T04:04:54;13.82;;;9.95;;
10945;SDS011;5525;42.648;23.368;2024-02-23T04:07:23;14.05;;;9.40;;
10945;SDS011;5525;42.648;23.368;2024-02-23T04:09:49;12.38;;;9.43;;
10945;SDS011;5525;42.648;23.368;2024-02-23T04:12:17;13.88;;;9.95;;
10945;SDS011;5525;42.648;23.368;2024-02-23T04:14:44;13.45;;;8.60;;
10945;SDS011;5525;42.648;23.368;2024-02-23T04:17:11;13.73;;;9.15;;
10945;SDS011;5525;42.648;23.368;2024-02-23T04:19:38;13.52;;;9.57;;
10945;SDS011;5525;42.648;23.368;2024-02-23T04:22:06;11.68;;;9.07;;
10945;SDS011;5525;42.648;23.368;2024-02-23T04:24:35;16.45;;;9.10;;
10945;SDS011;5525;42.648;23.368;2024-02-23T04:27:02;14.07;;;9.25;;
10945;SDS011;5525;42.648;23.368;2024-02-23T04:29:30;13.60;;;9.40;;
10945;SDS011;5525;42.648;23.368;2024-02-23T04:31:57;13.90;;;9.50;;
10945;SDS011;5525;42.648;23.368;2024-02-23T04:34:24;13.20;;;9.02;;
10945;SDS011;5525;42.648;23.368;2024-02-23T04:36:51;11.68;;;9.00;;
10945;SDS011;5525;42.648;23.368;2024-02-23T04:39:17;12.77;;;8.88;;
10945;SDS011;5525;42.648;23.368;2024-02-23T04:41:46;13.43;;;8.73;;
10945;SDS011;5525;42.648;23.368;2024-02-23T04:44:13;14.13;;;9.50;;
10945;SDS011;5525;42.648;23.368;2024-02-23T04:46:40;11.73;;;8.82;;
10945;SDS011;5525;42.648;23.368;2024-02-23T04:49:08;11.43;;;8.95;;
10945;SDS011;5525;42.648;23.368;2024-02-23T04:51:37;12.90;;;9.27;;
10945;SDS011;5525;42.648;23.368;2024-02-23T04:54:03;12.63;;;9.13;;
10945;SDS011;5525;42.648;23.368;2024-02-23T04:56:30;14.13;;;8.77;;
10945;SDS011;5525;42.648;23.368;2024-02-23T04:58:59;19.77;;;9.85;;
10945;SDS011;5525;42.648;23.368;2024-02-23T05:01:26;13.65;;;9.52;;
10945;SDS011;5525;42.648;23.368;2024-02-23T05:03:53;13.48;;;10.05;;
10945;SDS011;5525;42.648;23.368;2024-02-23T05:06:20;13.10;;;9.63;;
10945;SDS011;5525;42.648;23.368;2024-02-23T05:08:47;14.80;;;10.00;;
10945;SDS011;5525;42.648;23.368;2024-02-23T05:11:15;12.77;;;9.27;;
10945;SDS011;5525;42.648;23.368;2024-02-23T05:13:42;12.70;;;9.05;;
10945;SDS011;5525;42.648;23.368;2024-02-23T05:16:11;14.95;;;9.55;;
10945;SDS011;5525;42.648;23.368;2024-02-23T05:18:38;14.63;;;10.55;;
10945;SDS011;5525;42.648;23.368;2024-02-23T05:21:05;14.05;;;10.18;;
10945;SDS011;5525;42.648;23.368;2024-02-23T05:23:36;13.30;;;9.45;;
10945;SDS011;5525;42.648;23.368;2024-02-23T05:26:03;16.35;;;10.15;;
10945;SDS011;5525;42.648;23.368;2024-02-23T05:28:30;14.23;;;9.88;;
10945;SDS011;5525;42.648;23.368;2024-02-23T05:31:01;14.10;;;9.73;;
10945;SDS011;5525;42.648;23.368;2024-02-23T05:33:31;17.05;;;11.10;;
10945;SDS011;5525;42.648;23.368;2024-02-23T05:35:57;18.48;;;9.95;;
10945;SDS011;5525;42.648;23.368;2024-02-23T05:38:24;12.30;;;8.82;;
10945;SDS011;5525;42.648;23.368;2024-02-23T05:40:51;14.65;;;10.63;;
10945;SDS011;5525;42.648;23.368;2024-02-23T05:43:18;12.98;;;9.70;;
10945;SDS011;5525;42.648;23.368;2024-02-23T05:45:45;16.88;;;9.93;;
10945;SDS011;5525;42.648;23.368;2024-02-23T05:48:11;19.48;;;10.63;;
10945;SDS011;5525;42.648;23.368;2024-02-23T05:50:39;17.48;;;10.95;;
10945;SDS011;5525;42.648;23.368;2024-02-23T05:53:06;18.70;;;11.18;;
10945;SDS011;5525;42.648;23.368;2024-02-23T05:55:33;14.90;;;9.93;;
10945;SDS011;5525;42.648;23.368;2024-02-23T05:58:00;16.92;;;10.80;;
10945;SDS011;5525;42.648;23.368;2024-02-23T06:00:28;17.25;;;10.65;;
10945;SDS011;5525;42.648;23.368;2024-02-23T06:02:56;17.83;;;10.63;;
10945;SDS011;5525;42.648;23.368;2024-02-23T06:05:23;19.58;;;11.43;;
10945;SDS011;5525;42.648;23.368;2024-02-23T06:07:51;18.02;;;10.70;;
10945;SDS011;5525;42.648;23.368;2024-02-23T06:10:18;19.73;;;11.57;;
10945;SDS011;5525;42.648;23.368;2024-02-23T06:12:44;17.92;;;11.23;;
10945;SDS011;5525;42.648;23.368;2024-02-23T06:15:11;19.40;;;10.88;;
10945;SDS011;5525;42.648;23.368;2024-02-23T06:17:38;14.75;;;9.80;;
10945;SDS011;5525;42.648;23.368;2024-02-23T06:20:06;14.93;;;11.05;;
10945;SDS011;5525;42.648;23.368;2024-02-23T06:22:33;17.35;;;10.45;;
10945;SDS011;5525;42.648;23.368;2024-02-23T06:25:02;37.88;;;22.05;;
10945;SDS011;5525;42.648;23.368;2024-02-23T06:27:29;35.70;;;22.55;;
10945;SDS011;5525;42.648;23.368;2024-02-23T06:29:55;19.05;;;11.90;;
10945;SDS011;5525;42.648;23.368;2024-02-23T06:32:22;29.63;;;17.73;;
10945;SDS011;5525;42.648;23.368;2024-02-23T06:34:49;17.35;;;11.88;;
10945;SDS011;5525;42.648;23.368;2024-02-23T06:37:16;16.02;;;10.52;;
10945;SDS011;5525;42.648;23.368;2024-02-23T06:39:42;16.75;;;10.57;;
10945;SDS011;5525;42.648;23.368;2024-02-23T06:42:16;28.75;;;13.15;;
10945;SDS011;5525;42.648;23.368;2024-02-23T06:44:42;25.10;;;14.38;;
10945;SDS011;5525;42.648;23.368;2024-02-23T06:47:09;18.98;;;13.10;;
10945;SDS011;5525;42.648;23.368;2024-02-23T06:49:36;21.05;;;13.93;;
10945;SDS011;5525;42.648;23.368;2024-02-23T06:52:07;19.73;;;12.70;;
10945;SDS011;5525;42.648;23.368;2024-02-23T06:54:34;16.60;;;12.45;;
10945;SDS011;5525;42.648;23.368;2024-02-23T06:57:00;15.38;;;10.98;;
10945;SDS011;5525;42.648;23.368;2024-02-23T06:59:29;23.75;;;12.88;;
10945;SDS011;5525;42.648;23.368;2024-02-23T07:01:57;15.38;;;11.48;;
10945;SDS011;5525;42.648;23.368;2024-02-23T07:04:24;21.38;;;12.10;;
10945;SDS011;5525;42.648;23.368;2024-02-23T07:06:52;19.08;;;11.82;;
10945;SDS011;5525;42.648;23.368;2024-02-23T07:09:18;18.15;;;11.75;;
10945;SDS011;5525;42.648;23.368;2024-02-23T07:11:45;18.30;;;11.88;;
10945;SDS011;5525;42.648;23.368;2024-02-23T07:14:12;21.00;;;12.25;;
10945;SDS011;5525;42.648;23.368;2024-02-23T07:16:40;21.35;;;12.02;;
10945;SDS011;5525;42.648;23.368;2024-02-23T07:19:07;17.42;;;11.45;;
10945;SDS011;5525;42.648;23.368;2024-02-23T07:21:34;21.30;;;11.90;;
10945;SDS011;5525;42.648;23.368;2024-02-23T07:24:01;15.02;;;11.38;;
10945;SDS011;5525;42.648;23.368;2024-02-23T07:26:28;18.88;;;10.70;;
10945;SDS011;5525;42.648;23.368;2024-02-23T07:28:55;19.38;;;10.85;;
10945;SDS011;5525;42.648;23.368;2024-02-23T07:31:22;21.17;;;12.15;;
10945;SDS011;5525;42.648;23.368;2024-02-23T07:33:50;15.70;;;11.30;;
10945;SDS011;5525;42.648;23.368;2024-02-23T07:36:17;17.77;;;11.57;;
10945;SDS011;5525;42.648;23.368;2024-02-23T07:38:44;21.35;;;12.60;;
10945;SDS011;5525;42.648;23.368;2024-02-23T07:41:10;16.95;;;11.45;;
10945;SDS011;5525;42.648;23.368;2024-02-23T07:43:38;20.08;;;12.07;;
10945;SDS011;5525;42.648;23.368;2024-02-23T07:46:05;18.13;;;12.07;;
10945;SDS011;5525;42.648;23.368;2024-02-23T07:48:33;15.85;;;11.30;;
10945;SDS011;5525;42.648;23.368;2024-02-23T07:51:02;17.38;;;11.18;;
10945;SDS011;5525;42.648;23.368;2024-02-23T07:53:29;16.10;;;10.27;;
10945;SDS011;5525;42.648;23.368;2024-02-23T07:55:56;14.48;;;10.45;;
10945;SDS011;5525;42.648;23.368;2024-02-23T07:58:24;14.38;;;10.98;;
10945;SDS011;5525;42.648;23.368;2024-02-23T08:00:52;15.15;;;10.02;;
10945;SDS011;5525;42.648;23.368;2024-02-23T08:03:19;13.00;;;9.88;;
10945;SDS011;5525;42.648;23.368;2024-02-23T08:05:47;20.55;;;10.32;;
10945;SDS011;5525;42.648;23.368;2024-02-23T08:08:15;16.92;;;10.75;;
10945;SDS011;5525;42.648;23.368;2024-02-23T08:10:43;16.38;;;10.68;;
10945;SDS011;5525;42.648;23.368;2024-02-23T08:13:10;14.43;;;9.63;;
10945;SDS011;5525;42.648;23.368;2024-02-23T08:15:38;14.57;;;9.32;;
10945;SDS011;5525;42.648;23.368;2024-02-23T08:18:05;13.40;;;8.95;;
10945;SDS011;5525;42.648;23.368;2024-02-23T08:20:32;13.63;;;8.95;;
10945;SDS011;5525;42.648;23.368;2024-02-23T08:22:59;13.40;;;8.75;;
10945;SDS011;5525;42.648;23.368;2024-02-23T08:25:28;14.18;;;9.07;;
10945;SDS011;5525;42.648;23.368;2024-02-23T08:27:55;13.68;;;9.52;;
10945;SDS011;5525;42.648;23.368;2024-02-23T08:30:23;14.43;;;9.45;;
10945;SDS011;5525;42.648;23.368;2024-02-23T08:32:50;12.57;;;9.77;;
10945;SDS011;5525;42.648;23.368;2024-02-23T08:35:17;13.32;;;9.55;;
10945;SDS011;5525;42.648;23.368;2024-02-23T08:37:44;14.02;;;10.20;;
10945;SDS011;5525;42.648;23.368;2024-02-23T08:40:11;12.57;;;8.85;;
10945;SDS011;5525;42.648;23.368;2024-02-23T08:42:39;12.07;;;9.50;;
10945;SDS011;5525;42.648;23.368;2024-02-23T08:45:07;12.43;;;8.88;;
10945;SDS011;5525;42.648;23.368;2024-02-23T08:47:37;12.07;;;8.95;;
10945;SDS011;5525;42.648;23.368;2024-02-23T08:50:04;12.68;;;8.55;;
10945;SDS011;5525;42.648;23.368;2024-02-23T08:52:32;16.23;;;9.45;;
10945;SDS011;5525;42.648;23.368;2024-02-23T08:54:59;13.55;;;9.40;;
10945;SDS011;5525;42.648;23.368;2024-02-23T08:57:26;12.48;;;8.60;;
10945;SDS011;5525;42.648;23.368;2024-02-23T08:59:55;13.15;;;9.02;;
10945;SDS011;5525;42.648;23.368;2024-02-23T09:02:23;14.88;;;8.55;;
10945;SDS011;5525;42.648;23.368;2024-02-23T09:04:49;13.50;;;8.85;;
10945;SDS011;5525;42.648;23.368;2024-02-23T09:07:16;13.43;;;9.07;;
10945;SDS011;5525;42.648;23.368;2024-02-23T09:09:45;10.65;;;8.63;;
10945;SDS011;5525;42.648;23.368;2024-02-23T09:12:12;10.95;;;8.32;;
10945;SDS011;5525;42.648;23.368;2024-02-23T09:14:41;10.68;;;8.80;;
10945;SDS011;5525;42.648;23.368;2024-02-23T09:17:09;13.07;;;8.60;;
10945;SDS011;5525;42.648;23.368;2024-02-23T09:19:37;8.60;;;6.97;;
10945;SDS011;5525;42.648;23.368;2024-02-23T09:22:04;9.18;;;7.35;;
10945;SDS011;5525;42.648;23.368;2024-02-23T09:24:31;10.35;;;7.78;;
10945;SDS011;5525;42.648;23.368;2024-02-23T09:26:58;10.88;;;7.53;;
10945;SDS011;5525;42.648;23.368;2024-02-23T09:29:25;7.88;;;6.80;;
10945;SDS011;5525;42.648;23.368;2024-02-23T09:31:52;9.60;;;6.25;;
10945;SDS011;5525;42.648;23.368;2024-02-23T09:34:20;8.63;;;6.35;;
10945;SDS011;5525;42.648;23.368;2024-02-23T09:36:47;8.30;;;6.13;;
10945;SDS011;5525;42.648;23.368;2024-02-23T09:39:13;7.43;;;5.82;;
10945;SDS011;5525;42.648;23.368;2024-02-23T09:41:40;9.95;;;5.28;;
10945;SDS011;5525;42.648;23.368;2024-02-23T09:44:09;8.25;;;5.90;;
10945;SDS011;5525;42.648;23.368;2024-02-23T09:46:36;7.40;;;6.10;;
10945;SDS011;5525;42.648;23.368;2024-02-23T09:49:03;8.93;;;5.65;;
10945;SDS011;5525;42.648;23.368;2024-02-23T09:51:34;6.90;;;4.53;;
10945;SDS011;5525;42.648;23.368;2024-02-23T09:54:02;9.13;;;5.32;;
10945;SDS011;5525;42.648;23.368;2024-02-23T09:56:29;7.65;;;5.38;;
10945;SDS011;5525;42.648;23.368;2024-02-23T09:58:59;8.07;;;5.55;;
10945;SDS011;5525;42.648;23.368;2024-02-23T10:01:28;5.85;;;4.85;;
10945;SDS011;5525;42.648;23.368;2024-02-23T10:03:58;5.60;;;5.00;;
10945;SDS011;5525;42.648;23.368;2024-02-23T10:06:26;8.13;;;4.28;;
10945;SDS011;5525;42.648;23.368;2024-02-23T10:08:55;9.30;;;5.00;;
10945;SDS011;5525;42.648;23.368;2024-02-23T10:11:22;20.70;;;5.72;;
10945;SDS011;5525;42.648;23.368;2024-02-23T10:13:49;5.32;;;4.30;;
10945;SDS011;5525;42.648;23.368;2024-02-23T10:16:17;4.20;;;3.67;;
10945;SDS011;5525;42.648;23.368;2024-02-23T10:18:45;5.80;;;3.92;;
10945;SDS011;5525;42.648;23.368;2024-02-23T10:21:13;4.40;;;3.70;;
10945;SDS011;5525;42.648;23.368;2024-02-23T10:23:40;5.32;;;3.60;;
10945;SDS011;5525;42.648;23.368;2024-02-23T10:26:08;3.97;;;3.33;;
10945;SDS011;5525;42.648;23.368;2024-02-23T10:28:35;4.05;;;3.60;;
10945;SDS011;5525;42.648;23.368;2024-02-23T10:31:04;3.33;;;3.00;;
10945;SDS011;5525;42.648;23.368;2024-02-23T10:33:31;3.53;;;2.78;;
10945;SDS011;5525;42.648;23.368;2024-02-23T10:35:58;3.60;;;3.03;;
10945;SDS011;5525;42.648;23.368;2024-02-23T10:38:27;5.20;;;2.40;;
10945;SDS011;5525;42.648;23.368;2024-02-23T10:40:58;3.60;;;2.50;;
10945;SDS011;5525;42.648;23.368;2024-02-23T10:43:29;4.95;;;2.67;;
10945;SDS011;5525;42.648;23.368;2024-02-23T10:46:00;4.35;;;2.38;;
10945;SDS011;5525;42.648;23.368;2024-02-23T10:48:28;3.03;;;2.10;;
10945;SDS011;5525;42.648;23.368;2024-02-23T10:50:55;4.80;;;2.28;;
10945;SDS011;5525;42.648;23.368;2024-02-23T10:53:24;2.42;;;2.22;;
10945;SDS011;5525;42.648;23.368;2024-02-23T10:55:52;2.65;;;1.92;;
10945;SDS011;5525;42.648;23.368;2024-02-23T10:58:23;3.90;;;2.25;;
10945;SDS011;5525;42.648;23.368;2024-02-23T11:00:51;2.97;;;2.22;;
10945;SDS011;5525;42.648;23.368;2024-02-23T11:03:22;4.82;;;2.67;;
10945;SDS011;5525;42.648;23.368;2024-02-23T11:05:49;2.25;;;2.03;;
10945;SDS011;5525;42.648;23.368;2024-02-23T11:08:17;3.10;;;2.45;;
10945;SDS011;5525;42.648;23.368;2024-02-23T11:10:48;2.30;;;2.08;;
10945;SDS011;5525;42.648;23.368;2024-02-23T11:13:16;2.22;;;2.03;;
10945;SDS011;5525;42.648;23.368;2024-02-23T11:15:42;3.65;;;2.00;;
10945;SDS011;5525;42.648;23.368;2024-02-23T11:18:23;2.85;;;2.25;;
10945;SDS011;5525;42.648;23.368;2024-02-23T11:20:54;4.15;;;2.85;;
10945;SDS011;5525;42.648;23.368;2024-02-23T11:23:21;3.35;;;2.90;;
10945;SDS011;5525;42.648;23.368;2024-02-23T11:28:41;5.35;;;2.92;;
10945;SDS011;5525;42.648;23.368;2024-02-23T11:31:12;4.57;;;2.88;;
10945;SDS011;5525;42.648;23.368;2024-02-23T11:33:41;2.80;;;2.60;;
10945;SDS011;5525;42.648;23.368;2024-02-23T11:36:21;4.60;;;2.97;;
10945;SDS011;5525;42.648;23.368;2024-02-23T11:38:50;3.08;;;2.75;;
10945;SDS011;5525;42.648;23.368;2024-02-23T11:41:18;3.50;;;2.80;;
10945;SDS011;5525;42.648;23.368;2024-02-23T11:43:47;2.72;;;2.53;;
10945;SDS011;5525;42.648;23.368;2024-02-23T11:46:14;2.72;;;2.30;;
10945;SDS011;5525;42.648;23.368;2024-02-23T11:48:42;2.58;;;2.38;;
10945;SDS011;5525;42.648;23.368;2024-02-23T11:51:09;2.42;;;2.22;;
10945;SDS011;5525;42.648;23.368;2024-02-23T11:53:36;2.97;;;2.38;;
10945;SDS011;5525;42.648;23.368;2024-02-23T11:56:04;2.55;;;2.10;;
10945;SDS011;5525;42.648;23.368;2024-02-23T11:58:31;2.58;;;2.20;;
10945;SDS011;5525;42.648;23.368;2024-02-23T12:00:58;2.85;;;1.90;;
10945;SDS011;5525;42.648;23.368;2024-02-23T12:03:27;2.30;;;2.05;;
10945;SDS011;5525;42.648;23.368;2024-02-23T12:05:56;2.78;;;2.35;;
10945;SDS011;5525;42.648;23.368;2024-02-23T12:08:24;3.28;;;2.30;;
10945;SDS011;5525;42.648;23.368;2024-02-23T12:10:51;3.72;;;2.53;;
10945;SDS011;5525;42.648;23.368;2024-02-23T12:13:19;4.45;;;2.58;;
10945;SDS011;5525;42.648;23.368;2024-02-23T12:15:46;3.00;;;2.40;;
10945;SDS011;5525;42.648;23.368;2024-02-23T12:18:13;2.75;;;2.40;;
10945;SDS011;5525;42.648;23.368;2024-02-23T12:20:40;3.80;;;2.22;;
10945;SDS011;5525;42.648;23.368;2024-02-23T12:23:09;3.45;;;2.63;;
10945;SDS011;5525;42.648;23.368;2024-02-23T12:25:36;2.30;;;2.05;;
10945;SDS011;5525;42.648;23.368;2024-02-23T12:28:03;5.18;;;3.42;;
10945;SDS011;5525;42.648;23.368;2024-02-23T12:30:30;6.53;;;2.63;;
10945;SDS011;5525;42.648;23.368;2024-02-23T12:33:03;4.68;;;2.75;;
10945;SDS011;5525;42.648;23.368;2024-02-23T12:35:30;2.00;;;1.70;;
10945;SDS011;5525;42.648;23.368;2024-02-23T12:37:57;2.30;;;1.90;;
10945;SDS011;5525;42.648;23.368;2024-02-23T12:40:25;2.72;;;1.88;;
10945;SDS011;5525;42.648;23.368;2024-02-23T12:42:52;3.25;;;2.10;;
10945;SDS011;5525;42.648;23.368;2024-02-23T12:45:19;2.30;;;2.10;;
10945;SDS011;5525;42.648;23.368;2024-02-23T12:47:46;2.90;;;2.20;;
10945;SDS011;5525;42.648;23.368;2024-02-23T12:50:12;2.58;;;2.03;;
10945;SDS011;5525;42.648;23.368;2024-02-23T12:52:39;2.50;;;1.70;;
10945;SDS011;5525;42.648;23.368;2024-02-23T12:55:07;1.95;;;1.52;;
10945;SDS011;5525;42.648;23.368;2024-02-23T12:57:35;2.38;;;1.95;;
10945;SDS011;5525;42.648;23.368;2024-02-23T13:00:02;3.00;;;2.17;;
10945;SDS011;5525;42.648;23.368;2024-02-23T13:02:30;3.45;;;2.00;;
10945;SDS011;5525;42.648;23.368;2024-02-23T13:04:57;2.00;;;1.90;;
10945;SDS011;5525;42.648;23.368;2024-02-23T13:07:24;2.13;;;1.92;;
10945;SDS011;5525;42.648;23.368;2024-02-23T13:09:51;4.00;;;1.90;;
10945;SDS011;5525;42.648;23.368;2024-02-23T13:12:18;5.03;;;2.17;;
10945;SDS011;5525;42.648;23.368;2024-02-23T13:14:46;2.30;;;2.10;;
10945;SDS011;5525;42.648;23.368;2024-02-23T13:17:13;4.45;;;2.47;;
10945;SDS011;5525;42.648;23.368;2024-02-23T13:19:39;2.85;;;2.00;;
10945;SDS011;5525;42.648;23.368;2024-02-23T13:22:06;3.78;;;1.83;;
10945;SDS011;5525;42.648;23.368;2024-02-23T13:24:34;2.40;;;2.00;;
10945;SDS011;5525;42.648;23.368;2024-02-23T13:27:01;5.18;;;1.90;;
10945;SDS011;5525;42.648;23.368;2024-02-23T13:29:28;2.15;;;1.67;;
10945;SDS011;5525;42.648;23.368;2024-02-23T13:31:56;2.10;;;1.90;;
10945;SDS011;5525;42.648;23.368;2024-02-23T13:34:23;2.60;;;2.00;;
10945;SDS011;5525;42.648;23.368;2024-02-23T13:36:50;2.10;;;1.88;;
10945;SDS011;5525;42.648;23.368;2024-02-23T13:39:17;2.50;;;2.20;;
10945;SDS011;5525;42.648;23.368;2024-02-23T13:41:44;4.03;;;2.17;;
10945;SDS011;5525;42.648;23.368;2024-02-23T13:44:11;1.67;;;1.50;;
10945;SDS011;5525;42.648;23.368;2024-02-23T13:46:38;3.40;;;1.90;;
10945;SDS011;5525;42.648;23.368;2024-02-23T13:49:07;2.20;;;1.92;;
10945;SDS011;5525;42.648;23.368;2024-02-23T13:51:34;4.05;;;1.85;;
10945;SDS011;5525;42.648;23.368;2024-02-23T13:54:01;2.78;;;2.17;;
10945;SDS011;5525;42.648;23.368;2024-02-23T13:56:29;2.83;;;2.00;;
10945;SDS011;5525;42.648;23.368;2024-02-23T13:58:55;3.90;;;2.40;;
10945;SDS011;5525;42.648;23.368;2024-02-23T14:01:22;3.88;;;2.22;;
10945;SDS011;5525;42.648;23.368;2024-02-23T14:03:49;4.72;;;2.10;;
10945;SDS011;5525;42.648;23.368;2024-02-23T14:06:18;2.42;;;1.80;;
10945;SDS011;5525;42.648;23.368;2024-02-23T14:08:44;3.53;;;2.28;;
10945;SDS011;5525;42.648;23.368;2024-02-23T14:11:14;2.95;;;2.10;;
10945;SDS011;5525;42.648;23.368;2024-02-23T14:13:40;2.58;;;2.03;;
10945;SDS011;5525;42.648;23.368;2024-02-23T14:16:09;2.50;;;2.13;;
10945;SDS011;5525;42.648;23.368;2024-02-23T14:18:36;2.65;;;2.10;;
10945;SDS011;5525;42.648;23.368;2024-02-23T14:21:04;3.47;;;2.10;;
10945;SDS011;5525;42.648;23.368;2024-02-23T14:23:33;3.05;;;1.98;;
10945;SDS011;5525;42.648;23.368;2024-02-23T14:26:00;2.83;;;2.10;;
10945;SDS011;5525;42.648;23.368;2024-02-23T14:28:27;4.10;;;2.22;;
10945;SDS011;5525;42.648;23.368;2024-02-23T14:30:54;2.42;;;2.03;;
10945;SDS011;5525;42.648;23.368;2024-02-23T14:33:21;3.28;;;2.10;;
10945;SDS011;5525;42.648;23.368;2024-02-23T14:35:48;3.00;;;2.50;;
10945;SDS011;5525;42.648;23.368;2024-02-23T14:38:15;2.58;;;2.13;;
10945;SDS011;5525;42.648;23.368;2024-02-23T14:40:43;5.90;;;2.60;;